Aviation Digital Data Service (ADDS)

Output produced by METARs form (0832 UTC 19 April 2019)
found at http://www.aviationweather.gov/metar/data/
 
METAR text: EHGG 190825Z AUTO 07010KT 9999 NCD 15/05 Q1031 NOSIG
Conditions at: EHGG (GRONINGEN/EELDE , NL) observed 0825 UTC 19 April 2019
Temperature: 15.0°C (59°F)
Dewpoint: 5.0°C (41°F) [RH = 51%]
Pressure (altimeter): 30.44 inches Hg (1031.0 mb)
Winds: from the ENE (70 degrees) at 12 MPH (10 knots; 5.1 m/s)
Visibility: 6 or more miles (10+ km)
Ceiling: at least 12,000 feet AGL
Clouds: sky clear below 12,000 feet AGL
Weather: no significant weather observed at this time

METAR text: EHGG 190755Z AUTO 08009KT 050V110 9999 NCD 14/05 Q1031 NOSIG
Conditions at: EHGG (GRONINGEN/EELDE , NL) observed 0755 UTC 19 April 2019
Temperature: 14.0°C (57°F)
Dewpoint: 5.0°C (41°F) [RH = 55%]
Pressure (altimeter): 30.44 inches Hg (1031.0 mb)
Winds: from the E (80 degrees) at 10 MPH (9 knots; 4.6 m/s)
Visibility: 6 or more miles (10+ km)
Ceiling: at least 12,000 feet AGL
Clouds: sky clear below 12,000 feet AGL
Weather: no significant weather observed at this time

METAR text: EHGG 190725Z AUTO 08010KT 050V110 9999 NCD 13/04 Q1031 NOSIG
Conditions at: EHGG (GRONINGEN/EELDE , NL) observed 0725 UTC 19 April 2019
Temperature: 13.0°C (55°F)
Dewpoint: 4.0°C (39°F) [RH = 54%]
Pressure (altimeter): 30.44 inches Hg (1031.0 mb)
Winds: from the E (80 degrees) at 12 MPH (10 knots; 5.1 m/s)
Visibility: 6 or more miles (10+ km)
Ceiling: at least 12,000 feet AGL
Clouds: sky clear below 12,000 feet AGL
Weather: no significant weather observed at this time

METAR text: EHGG 190655Z AUTO 07007KT 040V110 9999 NCD 12/04 Q1031 NOSIG
Conditions at: EHGG (GRONINGEN/EELDE , NL) observed 0655 UTC 19 April 2019
Temperature: 12.0°C (54°F)
Dewpoint: 4.0°C (39°F) [RH = 58%]
Pressure (altimeter): 30.44 inches Hg (1031.0 mb)
Winds: from the ENE (70 degrees) at 8 MPH (7 knots; 3.6 m/s)
Visibility: 6 or more miles (10+ km)
Ceiling: at least 12,000 feet AGL
Clouds: sky clear below 12,000 feet AGL
Weather: no significant weather observed at this time

METAR text: EHGG 190625Z AUTO 08006KT 050V110 9999 NCD 10/04 Q1031 NOSIG
Conditions at: EHGG (GRONINGEN/EELDE , NL) observed 0625 UTC 19 April 2019
Temperature: 10.0°C (50°F)
Dewpoint: 4.0°C (39°F) [RH = 66%]
Pressure (altimeter): 30.44 inches Hg (1031.0 mb)
Winds: from the E (80 degrees) at 7 MPH (6 knots; 3.1 m/s)
Visibility: 6 or more miles (10+ km)
Ceiling: at least 12,000 feet AGL
Clouds: sky clear below 12,000 feet AGL
Weather: no significant weather observed at this time

METAR text: EHGG 190555Z AUTO 07007KT 9999 NCD 09/04 Q1030 NOSIG
Conditions at: EHGG (GRONINGEN/EELDE , NL) observed 0555 UTC 19 April 2019
Temperature: 9.0°C (48°F)
Dewpoint: 4.0°C (39°F) [RH = 71%]
Pressure (altimeter): 30.41 inches Hg (1030.0 mb)
Winds: from the ENE (70 degrees) at 8 MPH (7 knots; 3.6 m/s)
Visibility: 6 or more miles (10+ km)
Ceiling: at least 12,000 feet AGL
Clouds: sky clear below 12,000 feet AGL
Weather: no significant weather observed at this time

METAR text: EHGG 190525Z AUTO 07006KT 9999 NCD 08/04 Q1030 NOSIG
Conditions at: EHGG (GRONINGEN/EELDE , NL) observed 0525 UTC 19 April 2019
Temperature: 8.0°C (46°F)
Dewpoint: 4.0°C (39°F) [RH = 76%]
Pressure (altimeter): 30.41 inches Hg (1030.0 mb)
Winds: from the ENE (70 degrees) at 7 MPH (6 knots; 3.1 m/s)
Visibility: 6 or more miles (10+ km)
Ceiling: at least 12,000 feet AGL
Clouds: sky clear below 12,000 feet AGL
Weather: no significant weather observed at this time

METAR text: EHGG 190455Z AUTO 08007KT 050V110 9999 NCD 08/03 Q1030 NOSIG
Conditions at: EHGG (GRONINGEN/EELDE , NL) observed 0455 UTC 19 April 2019
Temperature: 8.0°C (46°F)
Dewpoint: 3.0°C (37°F) [RH = 71%]
Pressure (altimeter): 30.41 inches Hg (1030.0 mb)
Winds: from the E (80 degrees) at 8 MPH (7 knots; 3.6 m/s)
Visibility: 6 or more miles (10+ km)
Ceiling: at least 12,000 feet AGL
Clouds: sky clear below 12,000 feet AGL
Weather: no significant weather observed at this time

METAR text: EHGG 190425Z AUTO 08007KT 040V110 9999 NCD 08/03 Q1030 NOSIG
Conditions at: EHGG (GRONINGEN/EELDE , NL) observed 0425 UTC 19 April 2019
Temperature: 8.0°C (46°F)
Dewpoint: 3.0°C (37°F) [RH = 71%]
Pressure (altimeter): 30.41 inches Hg (1030.0 mb)
Winds: from the E (80 degrees) at 8 MPH (7 knots; 3.6 m/s)
Visibility: 6 or more miles (10+ km)
Ceiling: at least 12,000 feet AGL
Clouds: sky clear below 12,000 feet AGL
Weather: no significant weather observed at this time

METAR text: EHGG 190355Z AUTO 07007KT 040V100 9999 NCD 08/04 Q1030 NOSIG
Conditions at: EHGG (GRONINGEN/EELDE , NL) observed 0355 UTC 19 April 2019
Temperature: 8.0°C (46°F)
Dewpoint: 4.0°C (39°F) [RH = 76%]
Pressure (altimeter): 30.41 inches Hg (1030.0 mb)
Winds: from the ENE (70 degrees) at 8 MPH (7 knots; 3.6 m/s)
Visibility: 6 or more miles (10+ km)
Ceiling: at least 12,000 feet AGL
Clouds: sky clear below 12,000 feet AGL
Weather: no significant weather observed at this time

METAR text: EHGG 190325Z AUTO 07006KT 9999 NCD 08/04 Q1030
Conditions at: EHGG (GRONINGEN/EELDE , NL) observed 0325 UTC 19 April 2019
Temperature: 8.0°C (46°F)
Dewpoint: 4.0°C (39°F) [RH = 76%]
Pressure (altimeter): 30.41 inches Hg (1030.0 mb)
Winds: from the ENE (70 degrees) at 7 MPH (6 knots; 3.1 m/s)
Visibility: 6 or more miles (10+ km)
Ceiling: at least 12,000 feet AGL
Clouds: sky clear below 12,000 feet AGL
Weather: no significant weather observed at this time

METAR text: EHGG 190255Z AUTO 07007KT 9999 NCD 09/04 Q1030
Conditions at: EHGG (GRONINGEN/EELDE , NL) observed 0255 UTC 19 April 2019
Temperature: 9.0°C (48°F)
Dewpoint: 4.0°C (39°F) [RH = 71%]
Pressure (altimeter): 30.41 inches Hg (1030.0 mb)
Winds: from the ENE (70 degrees) at 8 MPH (7 knots; 3.6 m/s)
Visibility: 6 or more miles (10+ km)
Ceiling: at least 12,000 feet AGL
Clouds: sky clear below 12,000 feet AGL
Weather: no significant weather observed at this time

METAR text: EHGG 190225Z AUTO 07008KT 9999 NCD 09/05 Q1030
Conditions at: EHGG (GRONINGEN/EELDE , NL) observed 0225 UTC 19 April 2019
Temperature: 9.0°C (48°F)
Dewpoint: 5.0°C (41°F) [RH = 76%]
Pressure (altimeter): 30.41 inches Hg (1030.0 mb)
Winds: from the ENE (70 degrees) at 9 MPH (8 knots; 4.1 m/s)
Visibility: 6 or more miles (10+ km)
Ceiling: at least 12,000 feet AGL
Clouds: sky clear below 12,000 feet AGL
Weather: no significant weather observed at this time

METAR text: EHGG 190155Z AUTO 07008KT 9999 NCD 10/05 Q1030
Conditions at: EHGG (GRONINGEN/EELDE , NL) observed 0155 UTC 19 April 2019
Temperature: 10.0°C (50°F)
Dewpoint: 5.0°C (41°F) [RH = 71%]
Pressure (altimeter): 30.41 inches Hg (1030.0 mb)
Winds: from the ENE (70 degrees) at 9 MPH (8 knots; 4.1 m/s)
Visibility: 6 or more miles (10+ km)
Ceiling: at least 12,000 feet AGL
Clouds: sky clear below 12,000 feet AGL
Weather: no significant weather observed at this time

METAR text: EHGG 190125Z AUTO 08008KT 9999 NCD 11/05 Q1030
Conditions at: EHGG (GRONINGEN/EELDE , NL) observed 0125 UTC 19 April 2019
Temperature: 11.0°C (52°F)
Dewpoint: 5.0°C (41°F) [RH = 66%]
Pressure (altimeter): 30.41 inches Hg (1030.0 mb)
Winds: from the E (80 degrees) at 9 MPH (8 knots; 4.1 m/s)
Visibility: 6 or more miles (10+ km)
Ceiling: at least 12,000 feet AGL
Clouds: sky clear below 12,000 feet AGL
Weather: no significant weather observed at this time

METAR text: EHGG 190055Z AUTO 08008KT 050V110 9999 NCD 11/05 Q1030
Conditions at: EHGG (GRONINGEN/EELDE , NL) observed 0055 UTC 19 April 2019
Temperature: 11.0°C (52°F)
Dewpoint: 5.0°C (41°F) [RH = 66%]
Pressure (altimeter): 30.41 inches Hg (1030.0 mb)
Winds: from the E (80 degrees) at 9 MPH (8 knots; 4.1 m/s)
Visibility: 6 or more miles (10+ km)
Ceiling: at least 12,000 feet AGL
Clouds: sky clear below 12,000 feet AGL
Weather: no significant weather observed at this time

METAR text: EHGG 190025Z AUTO 08009KT 9999 NCD 11/05 Q1030
Conditions at: EHGG (GRONINGEN/EELDE , NL) observed 0025 UTC 19 April 2019
Temperature: 11.0°C (52°F)
Dewpoint: 5.0°C (41°F) [RH = 66%]
Pressure (altimeter): 30.41 inches Hg (1030.0 mb)
Winds: from the E (80 degrees) at 10 MPH (9 knots; 4.6 m/s)
Visibility: 6 or more miles (10+ km)
Ceiling: at least 12,000 feet AGL
Clouds: sky clear below 12,000 feet AGL
Weather: no significant weather observed at this time

METAR text: EHGG 182355Z AUTO 08009KT 050V110 9999 NCD 12/05 Q1030
Conditions at: EHGG (GRONINGEN/EELDE , NL) observed 2355 UTC 18 April 2019
Temperature: 12.0°C (54°F)
Dewpoint: 5.0°C (41°F) [RH = 62%]
Pressure (altimeter): 30.41 inches Hg (1030.0 mb)
Winds: from the E (80 degrees) at 10 MPH (9 knots; 4.6 m/s)
Visibility: 6 or more miles (10+ km)
Ceiling: at least 12,000 feet AGL
Clouds: sky clear below 12,000 feet AGL
Weather: no significant weather observed at this time

METAR text: EHGG 182325Z AUTO 07009KT 040V110 9999 NCD 12/06 Q1029
Conditions at: EHGG (GRONINGEN/EELDE , NL) observed 2325 UTC 18 April 2019
Temperature: 12.0°C (54°F)
Dewpoint: 6.0°C (43°F) [RH = 67%]
Pressure (altimeter): 30.38 inches Hg (1029.0 mb)
Winds: from the ENE (70 degrees) at 10 MPH (9 knots; 4.6 m/s)
Visibility: 6 or more miles (10+ km)
Ceiling: at least 12,000 feet AGL
Clouds: sky clear below 12,000 feet AGL
Weather: no significant weather observed at this time

METAR text: EHGG 182255Z AUTO 07008KT 9999 NCD 11/06 Q1029
Conditions at: EHGG (GRONINGEN/EELDE , NL) observed 2255 UTC 18 April 2019
Temperature: 11.0°C (52°F)
Dewpoint: 6.0°C (43°F) [RH = 71%]
Pressure (altimeter): 30.38 inches Hg (1029.0 mb)
Winds: from the ENE (70 degrees) at 9 MPH (8 knots; 4.1 m/s)
Visibility: 6 or more miles (10+ km)
Ceiling: at least 12,000 feet AGL
Clouds: sky clear below 12,000 feet AGL
Weather: no significant weather observed at this time

METAR text: EHGG 182225Z AUTO 06009KT 9999 NCD 12/06 Q1029
Conditions at: EHGG (GRONINGEN/EELDE , NL) observed 2225 UTC 18 April 2019
Temperature: 12.0°C (54°F)
Dewpoint: 6.0°C (43°F) [RH = 67%]
Pressure (altimeter): 30.38 inches Hg (1029.0 mb)
Winds: from the ENE (60 degrees) at 10 MPH (9 knots; 4.6 m/s)
Visibility: 6 or more miles (10+ km)
Ceiling: at least 12,000 feet AGL
Clouds: sky clear below 12,000 feet AGL
Weather: no significant weather observed at this time

METAR text: EHGG 182155Z AUTO 08010KT 040V120 9999 NCD 13/06 Q1029
Conditions at: EHGG (GRONINGEN/EELDE , NL) observed 2155 UTC 18 April 2019
Temperature: 13.0°C (55°F)
Dewpoint: 6.0°C (43°F) [RH = 62%]
Pressure (altimeter): 30.38 inches Hg (1029.0 mb)
Winds: from the E (80 degrees) at 12 MPH (10 knots; 5.1 m/s)
Visibility: 6 or more miles (10+ km)
Ceiling: at least 12,000 feet AGL
Clouds: sky clear below 12,000 feet AGL
Weather: no significant weather observed at this time

METAR text: EHGG 182125Z AUTO 07012KT 050V110 9999 NCD 14/06 Q1029
Conditions at: EHGG (GRONINGEN/EELDE , NL) observed 2125 UTC 18 April 2019
Temperature: 14.0°C (57°F)
Dewpoint: 6.0°C (43°F) [RH = 58%]
Pressure (altimeter): 30.38 inches Hg (1029.0 mb)
Winds: from the ENE (70 degrees) at 14 MPH (12 knots; 6.2 m/s)
Visibility: 6 or more miles (10+ km)
Ceiling: at least 12,000 feet AGL
Clouds: sky clear below 12,000 feet AGL
Weather: no significant weather observed at this time

METAR text: EHGG 182055Z AUTO 06011KT 9999 NCD 13/07 Q1029 NOSIG
Conditions at: EHGG (GRONINGEN/EELDE , NL) observed 2055 UTC 18 April 2019
Temperature: 13.0°C (55°F)
Dewpoint: 7.0°C (45°F) [RH = 67%]
Pressure (altimeter): 30.38 inches Hg (1029.0 mb)
Winds: from the ENE (60 degrees) at 13 MPH (11 knots; 5.7 m/s)
Visibility: 6 or more miles (10+ km)
Ceiling: at least 12,000 feet AGL
Clouds: sky clear below 12,000 feet AGL
Weather: no significant weather observed at this time

METAR text: EHGG 182025Z AUTO 06012KT 9999 NCD 13/07 Q1028 NOSIG
Conditions at: EHGG (GRONINGEN/EELDE , NL) observed 2025 UTC 18 April 2019
Temperature: 13.0°C (55°F)
Dewpoint: 7.0°C (45°F) [RH = 67%]
Pressure (altimeter): 30.35 inches Hg (1028.0 mb)
Winds: from the ENE (60 degrees) at 14 MPH (12 knots; 6.2 m/s)
Visibility: 6 or more miles (10+ km)
Ceiling: at least 12,000 feet AGL
Clouds: sky clear below 12,000 feet AGL
Weather: no significant weather observed at this time

METAR text: EHGG 181955Z AUTO 05011KT 9999 NCD 14/07 Q1028 NOSIG
Conditions at: EHGG (GRONINGEN/EELDE , NL) observed 1955 UTC 18 April 2019
Temperature: 14.0°C (57°F)
Dewpoint: 7.0°C (45°F) [RH = 63%]
Pressure (altimeter): 30.35 inches Hg (1028.0 mb)
Winds: from the NE (50 degrees) at 13 MPH (11 knots; 5.7 m/s)
Visibility: 6 or more miles (10+ km)
Ceiling: at least 12,000 feet AGL
Clouds: sky clear below 12,000 feet AGL
Weather: no significant weather observed at this time

METAR text: EHGG 181925Z AUTO 06010KT 9999 NCD 15/06 Q1028 NOSIG
Conditions at: EHGG (GRONINGEN/EELDE , NL) observed 1925 UTC 18 April 2019
Temperature: 15.0°C (59°F)
Dewpoint: 6.0°C (43°F) [RH = 55%]
Pressure (altimeter): 30.35 inches Hg (1028.0 mb)
Winds: from the ENE (60 degrees) at 12 MPH (10 knots; 5.1 m/s)
Visibility: 6 or more miles (10+ km)
Ceiling: at least 12,000 feet AGL
Clouds: sky clear below 12,000 feet AGL
Weather: no significant weather observed at this time

METAR text: EHGG 181855Z AUTO 08007KT 9999 NCD 15/03 Q1028 NOSIG
Conditions at: EHGG (GRONINGEN/EELDE , NL) observed 1855 UTC 18 April 2019
Temperature: 15.0°C (59°F)
Dewpoint: 3.0°C (37°F) [RH = 44%]
Pressure (altimeter): 30.35 inches Hg (1028.0 mb)
Winds: from the E (80 degrees) at 8 MPH (7 knots; 3.6 m/s)
Visibility: 6 or more miles (10+ km)
Ceiling: at least 12,000 feet AGL
Clouds: sky clear below 12,000 feet AGL
Weather: no significant weather observed at this time

METAR text: EHGG 181825Z AUTO 08006KT 050V110 9999 NCD 17/02 Q1027 NOSIG
Conditions at: EHGG (GRONINGEN/EELDE , NL) observed 1825 UTC 18 April 2019
Temperature: 17.0°C (63°F)
Dewpoint: 2.0°C (36°F) [RH = 36%]
Pressure (altimeter): 30.32 inches Hg (1027.0 mb)
Winds: from the E (80 degrees) at 7 MPH (6 knots; 3.1 m/s)
Visibility: 6 or more miles (10+ km)
Ceiling: at least 12,000 feet AGL
Clouds: sky clear below 12,000 feet AGL
Weather: no significant weather observed at this time

METAR text: EHGG 181755Z AUTO 10008KT 070V130 9999 NCD 19/01 Q1027 NOSIG
Conditions at: EHGG (GRONINGEN/EELDE , NL) observed 1755 UTC 18 April 2019
Temperature: 19.0°C (66°F)
Dewpoint: 1.0°C (34°F) [RH = 30%]
Pressure (altimeter): 30.32 inches Hg (1027.0 mb)
Winds: from the E (100 degrees) at 9 MPH (8 knots; 4.1 m/s)
Visibility: 6 or more miles (10+ km)
Ceiling: at least 12,000 feet AGL
Clouds: sky clear below 12,000 feet AGL
Weather: no significant weather observed at this time

METAR text: EHGG 181725Z AUTO 11008KT 060V150 9999 NCD 20/01 Q1027 NOSIG
Conditions at: EHGG (GRONINGEN/EELDE , NL) observed 1725 UTC 18 April 2019
Temperature: 20.0°C (68°F)
Dewpoint: 1.0°C (34°F) [RH = 28%]
Pressure (altimeter): 30.32 inches Hg (1027.0 mb)
Winds: from the ESE (110 degrees) at 9 MPH (8 knots; 4.1 m/s)
Visibility: 6 or more miles (10+ km)
Ceiling: at least 12,000 feet AGL
Clouds: sky clear below 12,000 feet AGL
Weather: no significant weather observed at this time

METAR text: EHGG 181655Z AUTO 10009KT 060V140 9999 NCD 20/00 Q1027 NOSIG
Conditions at: EHGG (GRONINGEN/EELDE , NL) observed 1655 UTC 18 April 2019
Temperature: 20.0°C (68°F)
Dewpoint: 0.0°C (32°F) [RH = 26%]
Pressure (altimeter): 30.32 inches Hg (1027.0 mb)
Winds: from the E (100 degrees) at 10 MPH (9 knots; 4.6 m/s)
Visibility: 6 or more miles (10+ km)
Ceiling: at least 12,000 feet AGL
Clouds: sky clear below 12,000 feet AGL
Weather: no significant weather observed at this time

METAR text: EHGG 181625Z AUTO 10012KT 070V140 9999 NCD 20/01 Q1027 TEMPO 10013G23KT
Conditions at: EHGG (GRONINGEN/EELDE , NL) observed 1625 UTC 18 April 2019
Temperature: 20.0°C (68°F)
Dewpoint: 1.0°C (34°F) [RH = 28%]
Pressure (altimeter): 30.32 inches Hg (1027.0 mb)
Winds: from the E (100 degrees) at 14 MPH (12 knots; 6.2 m/s)
Visibility: 6 or more miles (10+ km)
Ceiling: at least 12,000 feet AGL
Clouds: sky clear below 12,000 feet AGL
Weather: no significant weather observed at this time

METAR text: EHGG 181555Z AUTO 11012KT 070V160 9999 NCD 21/01 Q1027 TEMPO 10013G23KT
Conditions at: EHGG (GRONINGEN/EELDE , NL) observed 1555 UTC 18 April 2019
Temperature: 21.0°C (70°F)
Dewpoint: 1.0°C (34°F) [RH = 26%]
Pressure (altimeter): 30.32 inches Hg (1027.0 mb)
Winds: from the ESE (110 degrees) at 14 MPH (12 knots; 6.2 m/s)
Visibility: 6 or more miles (10+ km)
Ceiling: at least 12,000 feet AGL
Clouds: sky clear below 12,000 feet AGL
Weather: no significant weather observed at this time

METAR text: EHGG 181525Z AUTO 09012KT 050V140 9999 NCD 21/02 Q1027 TEMPO 10013G23KT
Conditions at: EHGG (GRONINGEN/EELDE , NL) observed 1525 UTC 18 April 2019
Temperature: 21.0°C (70°F)
Dewpoint: 2.0°C (36°F) [RH = 28%]
Pressure (altimeter): 30.32 inches Hg (1027.0 mb)
Winds: from the E (90 degrees) at 14 MPH (12 knots; 6.2 m/s)
Visibility: 6 or more miles (10+ km)
Ceiling: at least 12,000 feet AGL
Clouds: sky clear below 12,000 feet AGL
Weather: no significant weather observed at this time

METAR text: EHGG 181455Z AUTO 11011KT 070V140 9999 NCD 21/03 Q1027 TEMPO 10013G23KT
Conditions at: EHGG (GRONINGEN/EELDE , NL) observed 1455 UTC 18 April 2019
Temperature: 21.0°C (70°F)
Dewpoint: 3.0°C (37°F) [RH = 30%]
Pressure (altimeter): 30.32 inches Hg (1027.0 mb)
Winds: from the ESE (110 degrees) at 13 MPH (11 knots; 5.7 m/s)
Visibility: 6 or more miles (10+ km)
Ceiling: at least 12,000 feet AGL
Clouds: sky clear below 12,000 feet AGL
Weather: no significant weather observed at this time

METAR text: EHGG 181425Z AUTO 10011KT 050V150 9999 NCD 21/04 Q1027 TEMPO 10013G23KT
Conditions at: EHGG (GRONINGEN/EELDE , NL) observed 1425 UTC 18 April 2019
Temperature: 21.0°C (70°F)
Dewpoint: 4.0°C (39°F) [RH = 33%]
Pressure (altimeter): 30.32 inches Hg (1027.0 mb)
Winds: from the E (100 degrees) at 13 MPH (11 knots; 5.7 m/s)
Visibility: 6 or more miles (10+ km)
Ceiling: at least 12,000 feet AGL
Clouds: sky clear below 12,000 feet AGL
Weather: no significant weather observed at this time

METAR text: EHGG 181355Z AUTO 10011KT 060V180 9999 NCD 21/05 Q1027 TEMPO 10013G23KT
Conditions at: EHGG (GRONINGEN/EELDE , NL) observed 1355 UTC 18 April 2019
Temperature: 21.0°C (70°F)
Dewpoint: 5.0°C (41°F) [RH = 35%]
Pressure (altimeter): 30.32 inches Hg (1027.0 mb)
Winds: from the E (100 degrees) at 13 MPH (11 knots; 5.7 m/s)
Visibility: 6 or more miles (10+ km)
Ceiling: at least 12,000 feet AGL
Clouds: sky clear below 12,000 feet AGL
Weather: no significant weather observed at this time

METAR text: EHGG 181325Z AUTO 11013KT 060V160 9999 NCD 21/03 Q1027 TEMPO 10013G23KT
Conditions at: EHGG (GRONINGEN/EELDE , NL) observed 1325 UTC 18 April 2019
Temperature: 21.0°C (70°F)
Dewpoint: 3.0°C (37°F) [RH = 30%]
Pressure (altimeter): 30.32 inches Hg (1027.0 mb)
Winds: from the ESE (110 degrees) at 15 MPH (13 knots; 6.7 m/s)
Visibility: 6 or more miles (10+ km)
Ceiling: at least 12,000 feet AGL
Clouds: sky clear below 12,000 feet AGL
Weather: no significant weather observed at this time

METAR text: EHGG 181255Z AUTO 10011KT 050V130 9999 NCD 21/05 Q1027 TEMPO 10013G23KT
Conditions at: EHGG (GRONINGEN/EELDE , NL) observed 1255 UTC 18 April 2019
Temperature: 21.0°C (70°F)
Dewpoint: 5.0°C (41°F) [RH = 35%]
Pressure (altimeter): 30.32 inches Hg (1027.0 mb)
Winds: from the E (100 degrees) at 13 MPH (11 knots; 5.7 m/s)
Visibility: 6 or more miles (10+ km)
Ceiling: at least 12,000 feet AGL
Clouds: sky clear below 12,000 feet AGL
Weather: no significant weather observed at this time

METAR text: EHGG 181225Z AUTO 10012KT 070V140 9999 NSC 20/04 Q1027 NOSIG
Conditions at: EHGG (GRONINGEN/EELDE , NL) observed 1225 UTC 18 April 2019
Temperature: 20.0°C (68°F)
Dewpoint: 4.0°C (39°F) [RH = 35%]
Pressure (altimeter): 30.32 inches Hg (1027.0 mb)
Winds: from the E (100 degrees) at 14 MPH (12 knots; 6.2 m/s)
Visibility: 6 or more miles (10+ km)
Ceiling: at least 12,000 feet AGL
Clouds: sky clear below 12,000 feet AGL
Weather: no significant weather observed at this time

METAR text: EHGG 181155Z AUTO 10012KT 050V140 9999 NSC 20/05 Q1028 NOSIG
Conditions at: EHGG (GRONINGEN/EELDE , NL) observed 1155 UTC 18 April 2019
Temperature: 20.0°C (68°F)
Dewpoint: 5.0°C (41°F) [RH = 37%]
Pressure (altimeter): 30.35 inches Hg (1028.0 mb)
Winds: from the E (100 degrees) at 14 MPH (12 knots; 6.2 m/s)
Visibility: 6 or more miles (10+ km)
Ceiling: at least 12,000 feet AGL
Clouds: sky clear below 12,000 feet AGL
Weather: no significant weather observed at this time

METAR text: EHGG 181125Z AUTO 09011KT 050V150 9999 NSC 20/04 Q1028 NOSIG
Conditions at: EHGG (GRONINGEN/EELDE , NL) observed 1125 UTC 18 April 2019
Temperature: 20.0°C (68°F)
Dewpoint: 4.0°C (39°F) [RH = 35%]
Pressure (altimeter): 30.35 inches Hg (1028.0 mb)
Winds: from the E (90 degrees) at 13 MPH (11 knots; 5.7 m/s)
Visibility: 6 or more miles (10+ km)
Ceiling: at least 12,000 feet AGL
Clouds: sky clear below 12,000 feet AGL
Weather: no significant weather observed at this time

METAR text: EHGG 181055Z AUTO 09011KT 040V130 9999 NSC 20/04 Q1028 NOSIG
Conditions at: EHGG (GRONINGEN/EELDE , NL) observed 1055 UTC 18 April 2019
Temperature: 20.0°C (68°F)
Dewpoint: 4.0°C (39°F) [RH = 35%]
Pressure (altimeter): 30.35 inches Hg (1028.0 mb)
Winds: from the E (90 degrees) at 13 MPH (11 knots; 5.7 m/s)
Visibility: 6 or more miles (10+ km)
Ceiling: at least 12,000 feet AGL
Clouds: sky clear below 12,000 feet AGL
Weather: no significant weather observed at this time

METAR text: EHGG 181025Z AUTO 09014KT 060V140 9999 NSC 19/04 Q1028 NOSIG
Conditions at: EHGG (GRONINGEN/EELDE , NL) observed 1025 UTC 18 April 2019
Temperature: 19.0°C (66°F)
Dewpoint: 4.0°C (39°F) [RH = 37%]
Pressure (altimeter): 30.35 inches Hg (1028.0 mb)
Winds: from the E (90 degrees) at 16 MPH (14 knots; 7.2 m/s)
Visibility: 6 or more miles (10+ km)
Ceiling: at least 12,000 feet AGL
Clouds: sky clear below 12,000 feet AGL
Weather: no significant weather observed at this time

METAR text: EHGG 180955Z AUTO 09012KT 050V120 9999 NSC 18/04 Q1028 NOSIG
Conditions at: EHGG (GRONINGEN/EELDE , NL) observed 0955 UTC 18 April 2019
Temperature: 18.0°C (64°F)
Dewpoint: 4.0°C (39°F) [RH = 39%]
Pressure (altimeter): 30.35 inches Hg (1028.0 mb)
Winds: from the E (90 degrees) at 14 MPH (12 knots; 6.2 m/s)
Visibility: 6 or more miles (10+ km)
Ceiling: at least 12,000 feet AGL
Clouds: sky clear below 12,000 feet AGL
Weather: no significant weather observed at this time

METAR text: EHGG 180925Z AUTO 09010KT 050V130 9999 NSC 18/05 Q1028 NOSIG
Conditions at: EHGG (GRONINGEN/EELDE , NL) observed 0925 UTC 18 April 2019
Temperature: 18.0°C (64°F)
Dewpoint: 5.0°C (41°F) [RH = 42%]
Pressure (altimeter): 30.35 inches Hg (1028.0 mb)
Winds: from the E (90 degrees) at 12 MPH (10 knots; 5.1 m/s)
Visibility: 6 or more miles (10+ km)
Ceiling: at least 12,000 feet AGL
Clouds: sky clear below 12,000 feet AGL
Weather: no significant weather observed at this time

METAR text: EHGG 180855Z AUTO 08011KT 050V120 9999 NSC 16/05 Q1028 NOSIG
Conditions at: EHGG (GRONINGEN/EELDE , NL) observed 0855 UTC 18 April 2019
Temperature: 16.0°C (61°F)
Dewpoint: 5.0°C (41°F) [RH = 48%]
Pressure (altimeter): 30.35 inches Hg (1028.0 mb)
Winds: from the E (80 degrees) at 13 MPH (11 knots; 5.7 m/s)
Visibility: 6 or more miles (10+ km)
Ceiling: at least 12,000 feet AGL
Clouds: sky clear below 12,000 feet AGL
Weather: no significant weather observed at this time

METAR text: EHGG 180825Z AUTO 08010KT 050V110 9999 NSC 15/05 Q1028 NOSIG
Conditions at: EHGG (GRONINGEN/EELDE , NL) observed 0825 UTC 18 April 2019
Temperature: 15.0°C (59°F)
Dewpoint: 5.0°C (41°F) [RH = 51%]
Pressure (altimeter): 30.35 inches Hg (1028.0 mb)
Winds: from the E (80 degrees) at 12 MPH (10 knots; 5.1 m/s)
Visibility: 6 or more miles (10+ km)
Ceiling: at least 12,000 feet AGL
Clouds: sky clear below 12,000 feet AGL
Weather: no significant weather observed at this time

METAR text: EHGG 180755Z AUTO 08008KT 040V120 9999 NSC 14/05 Q1028 NOSIG
Conditions at: EHGG (GRONINGEN/EELDE , NL) observed 0755 UTC 18 April 2019
Temperature: 14.0°C (57°F)
Dewpoint: 5.0°C (41°F) [RH = 55%]
Pressure (altimeter): 30.35 inches Hg (1028.0 mb)
Winds: from the E (80 degrees) at 9 MPH (8 knots; 4.1 m/s)
Visibility: 6 or more miles (10+ km)
Ceiling: at least 12,000 feet AGL
Clouds: sky clear below 12,000 feet AGL
Weather: no significant weather observed at this time

METAR text: EHGG 180725Z AUTO 09007KT 060V120 9999 NSC 13/05 Q1028 NOSIG
Conditions at: EHGG (GRONINGEN/EELDE , NL) observed 0725 UTC 18 April 2019
Temperature: 13.0°C (55°F)
Dewpoint: 5.0°C (41°F) [RH = 58%]
Pressure (altimeter): 30.35 inches Hg (1028.0 mb)
Winds: from the E (90 degrees) at 8 MPH (7 knots; 3.6 m/s)
Visibility: 6 or more miles (10+ km)
Ceiling: at least 12,000 feet AGL
Clouds: sky clear below 12,000 feet AGL
Weather: no significant weather observed at this time

METAR text: EHGG 180655Z AUTO 08009KT 040V110 9999 NSC 11/04 Q1028 NOSIG
Conditions at: EHGG (GRONINGEN/EELDE , NL) observed 0655 UTC 18 April 2019
Temperature: 11.0°C (52°F)
Dewpoint: 4.0°C (39°F) [RH = 62%]
Pressure (altimeter): 30.35 inches Hg (1028.0 mb)
Winds: from the E (80 degrees) at 10 MPH (9 knots; 4.6 m/s)
Visibility: 6 or more miles (10+ km)
Ceiling: at least 12,000 feet AGL
Clouds: sky clear below 12,000 feet AGL
Weather: no significant weather observed at this time

METAR text: EHGG 180625Z AUTO 08008KT 9999 NSC 10/04 Q1028 NOSIG
Conditions at: EHGG (GRONINGEN/EELDE , NL) observed 0625 UTC 18 April 2019
Temperature: 10.0°C (50°F)
Dewpoint: 4.0°C (39°F) [RH = 66%]
Pressure (altimeter): 30.35 inches Hg (1028.0 mb)
Winds: from the E (80 degrees) at 9 MPH (8 knots; 4.1 m/s)
Visibility: 6 or more miles (10+ km)
Ceiling: at least 12,000 feet AGL
Clouds: sky clear below 12,000 feet AGL
Weather: no significant weather observed at this time

METAR text: EHGG 180555Z AUTO 08008KT 9999 NSC 09/04 Q1027 NOSIG
Conditions at: EHGG (GRONINGEN/EELDE , NL) observed 0555 UTC 18 April 2019
Temperature: 9.0°C (48°F)
Dewpoint: 4.0°C (39°F) [RH = 71%]
Pressure (altimeter): 30.32 inches Hg (1027.0 mb)
Winds: from the E (80 degrees) at 9 MPH (8 knots; 4.1 m/s)
Visibility: 6 or more miles (10+ km)
Ceiling: at least 12,000 feet AGL
Clouds: sky clear below 12,000 feet AGL
Weather: no significant weather observed at this time

METAR text: EHGG 180525Z AUTO 08008KT 9999 NSC 08/04 Q1027 NOSIG
Conditions at: EHGG (GRONINGEN/EELDE , NL) observed 0525 UTC 18 April 2019
Temperature: 8.0°C (46°F)
Dewpoint: 4.0°C (39°F) [RH = 76%]
Pressure (altimeter): 30.32 inches Hg (1027.0 mb)
Winds: from the E (80 degrees) at 9 MPH (8 knots; 4.1 m/s)
Visibility: 6 or more miles (10+ km)
Ceiling: at least 12,000 feet AGL
Clouds: sky clear below 12,000 feet AGL
Weather: no significant weather observed at this time

METAR text: EHGG 180455Z AUTO 08007KT 9999 NSC 07/03 Q1027 NOSIG
Conditions at: EHGG (GRONINGEN/EELDE , NL) observed 0455 UTC 18 April 2019
Temperature: 7.0°C (45°F)
Dewpoint: 3.0°C (37°F) [RH = 76%]
Pressure (altimeter): 30.32 inches Hg (1027.0 mb)
Winds: from the E (80 degrees) at 8 MPH (7 knots; 3.6 m/s)
Visibility: 6 or more miles (10+ km)
Ceiling: at least 12,000 feet AGL
Clouds: sky clear below 12,000 feet AGL
Weather: no significant weather observed at this time

METAR text: EHGG 180425Z AUTO 08007KT 9999 NSC 07/03 Q1027 NOSIG
Conditions at: EHGG (GRONINGEN/EELDE , NL) observed 0425 UTC 18 April 2019
Temperature: 7.0°C (45°F)
Dewpoint: 3.0°C (37°F) [RH = 76%]
Pressure (altimeter): 30.32 inches Hg (1027.0 mb)
Winds: from the E (80 degrees) at 8 MPH (7 knots; 3.6 m/s)
Visibility: 6 or more miles (10+ km)
Ceiling: at least 12,000 feet AGL
Clouds: sky clear below 12,000 feet AGL
Weather: no significant weather observed at this time

METAR text: EHGG 180355Z AUTO 08006KT 050V110 9999 NSC 07/03 Q1027 NOSIG
Conditions at: EHGG (GRONINGEN/EELDE , NL) observed 0355 UTC 18 April 2019
Temperature: 7.0°C (45°F)
Dewpoint: 3.0°C (37°F) [RH = 76%]
Pressure (altimeter): 30.32 inches Hg (1027.0 mb)
Winds: from the E (80 degrees) at 7 MPH (6 knots; 3.1 m/s)
Visibility: 6 or more miles (10+ km)
Ceiling: at least 12,000 feet AGL
Clouds: sky clear below 12,000 feet AGL
Weather: no significant weather observed at this time

METAR text: EHGG 180325Z AUTO 08006KT 9999 NSC 07/03 Q1027
Conditions at: EHGG (GRONINGEN/EELDE , NL) observed 0325 UTC 18 April 2019
Temperature: 7.0°C (45°F)
Dewpoint: 3.0°C (37°F) [RH = 76%]
Pressure (altimeter): 30.32 inches Hg (1027.0 mb)
Winds: from the E (80 degrees) at 7 MPH (6 knots; 3.1 m/s)
Visibility: 6 or more miles (10+ km)
Ceiling: at least 12,000 feet AGL
Clouds: sky clear below 12,000 feet AGL
Weather: no significant weather observed at this time

METAR text: EHGG 180255Z AUTO 07007KT 9999 NCD 07/03 Q1027
Conditions at: EHGG (GRONINGEN/EELDE , NL) observed 0255 UTC 18 April 2019
Temperature: 7.0°C (45°F)
Dewpoint: 3.0°C (37°F) [RH = 76%]
Pressure (altimeter): 30.32 inches Hg (1027.0 mb)
Winds: from the ENE (70 degrees) at 8 MPH (7 knots; 3.6 m/s)
Visibility: 6 or more miles (10+ km)
Ceiling: at least 12,000 feet AGL
Clouds: sky clear below 12,000 feet AGL
Weather: no significant weather observed at this time

METAR text: EHGG 180225Z AUTO 08007KT 9999 NSC 08/03 Q1026
Conditions at: EHGG (GRONINGEN/EELDE , NL) observed 0225 UTC 18 April 2019
Temperature: 8.0°C (46°F)
Dewpoint: 3.0°C (37°F) [RH = 71%]
Pressure (altimeter): 30.30 inches Hg (1026.0 mb)
Winds: from the E (80 degrees) at 8 MPH (7 knots; 3.6 m/s)
Visibility: 6 or more miles (10+ km)
Ceiling: at least 12,000 feet AGL
Clouds: sky clear below 12,000 feet AGL
Weather: no significant weather observed at this time

METAR text: EHGG 180155Z AUTO 08008KT 9999 NSC 08/02 Q1026
Conditions at: EHGG (GRONINGEN/EELDE , NL) observed 0155 UTC 18 April 2019
Temperature: 8.0°C (46°F)
Dewpoint: 2.0°C (36°F) [RH = 66%]
Pressure (altimeter): 30.30 inches Hg (1026.0 mb)
Winds: from the E (80 degrees) at 9 MPH (8 knots; 4.1 m/s)
Visibility: 6 or more miles (10+ km)
Ceiling: at least 12,000 feet AGL
Clouds: sky clear below 12,000 feet AGL
Weather: no significant weather observed at this time

METAR text: EHGG 180125Z AUTO 07007KT 9999 NSC 08/02 Q1026
Conditions at: EHGG (GRONINGEN/EELDE , NL) observed 0125 UTC 18 April 2019
Temperature: 8.0°C (46°F)
Dewpoint: 2.0°C (36°F) [RH = 66%]
Pressure (altimeter): 30.30 inches Hg (1026.0 mb)
Winds: from the ENE (70 degrees) at 8 MPH (7 knots; 3.6 m/s)
Visibility: 6 or more miles (10+ km)
Ceiling: at least 12,000 feet AGL
Clouds: sky clear below 12,000 feet AGL
Weather: no significant weather observed at this time

METAR text: EHGG 180055Z AUTO 07006KT 040V100 9999 NSC 07/01 Q1026
Conditions at: EHGG (GRONINGEN/EELDE , NL) observed 0055 UTC 18 April 2019
Temperature: 7.0°C (45°F)
Dewpoint: 1.0°C (34°F) [RH = 66%]
Pressure (altimeter): 30.30 inches Hg (1026.0 mb)
Winds: from the ENE (70 degrees) at 7 MPH (6 knots; 3.1 m/s)
Visibility: 6 or more miles (10+ km)
Ceiling: at least 12,000 feet AGL
Clouds: sky clear below 12,000 feet AGL
Weather: no significant weather observed at this time

METAR text: EHGG 180025Z AUTO 08005KT 050V110 9999 NSC 09/01 Q1026
Conditions at: EHGG (GRONINGEN/EELDE , NL) observed 0025 UTC 18 April 2019
Temperature: 9.0°C (48°F)
Dewpoint: 1.0°C (34°F) [RH = 57%]
Pressure (altimeter): 30.30 inches Hg (1026.0 mb)
Winds: from the E (80 degrees) at 6 MPH (5 knots; 2.6 m/s)
Visibility: 6 or more miles (10+ km)
Ceiling: at least 12,000 feet AGL
Clouds: sky clear below 12,000 feet AGL
Weather: no significant weather observed at this time

METAR text: EHGG 172355Z AUTO 08006KT 9999 NSC 10/01 Q1026
Conditions at: EHGG (GRONINGEN/EELDE , NL) observed 2355 UTC 17 April 2019
Temperature: 10.0°C (50°F)
Dewpoint: 1.0°C (34°F) [RH = 53%]
Pressure (altimeter): 30.30 inches Hg (1026.0 mb)
Winds: from the E (80 degrees) at 7 MPH (6 knots; 3.1 m/s)
Visibility: 6 or more miles (10+ km)
Ceiling: at least 12,000 feet AGL
Clouds: sky clear below 12,000 feet AGL
Weather: no significant weather observed at this time

METAR text: EHGG 172325Z AUTO 08005KT 040V100 9999 NSC 10/01 Q1026
Conditions at: EHGG (GRONINGEN/EELDE , NL) observed 2325 UTC 17 April 2019
Temperature: 10.0°C (50°F)
Dewpoint: 1.0°C (34°F) [RH = 53%]
Pressure (altimeter): 30.30 inches Hg (1026.0 mb)
Winds: from the E (80 degrees) at 6 MPH (5 knots; 2.6 m/s)
Visibility: 6 or more miles (10+ km)
Ceiling: at least 12,000 feet AGL
Clouds: sky clear below 12,000 feet AGL
Weather: no significant weather observed at this time

METAR text: EHGG 172255Z AUTO 08006KT 9999 NSC 11/01 Q1026
Conditions at: EHGG (GRONINGEN/EELDE , NL) observed 2255 UTC 17 April 2019
Temperature: 11.0°C (52°F)
Dewpoint: 1.0°C (34°F) [RH = 50%]
Pressure (altimeter): 30.30 inches Hg (1026.0 mb)
Winds: from the E (80 degrees) at 7 MPH (6 knots; 3.1 m/s)
Visibility: 6 or more miles (10+ km)
Ceiling: at least 12,000 feet AGL
Clouds: sky clear below 12,000 feet AGL
Weather: no significant weather observed at this time

METAR text: EHGG 172225Z AUTO 09005KT 050V120 9999 NSC 11/01 Q1026
Conditions at: EHGG (GRONINGEN/EELDE , NL) observed 2225 UTC 17 April 2019
Temperature: 11.0°C (52°F)
Dewpoint: 1.0°C (34°F) [RH = 50%]
Pressure (altimeter): 30.30 inches Hg (1026.0 mb)
Winds: from the E (90 degrees) at 6 MPH (5 knots; 2.6 m/s)
Visibility: 6 or more miles (10+ km)
Ceiling: at least 12,000 feet AGL
Clouds: sky clear below 12,000 feet AGL
Weather: no significant weather observed at this time

METAR text: EHGG 172155Z AUTO 09006KT 060V140 9999 NSC 12/01 Q1026
Conditions at: EHGG (GRONINGEN/EELDE , NL) observed 2155 UTC 17 April 2019
Temperature: 12.0°C (54°F)
Dewpoint: 1.0°C (34°F) [RH = 47%]
Pressure (altimeter): 30.30 inches Hg (1026.0 mb)
Winds: from the E (90 degrees) at 7 MPH (6 knots; 3.1 m/s)
Visibility: 6 or more miles (10+ km)
Ceiling: at least 12,000 feet AGL
Clouds: sky clear below 12,000 feet AGL
Weather: no significant weather observed at this time

METAR text: EHGG 172125Z AUTO 08007KT 9999 NSC 12/01 Q1025
Conditions at: EHGG (GRONINGEN/EELDE , NL) observed 2125 UTC 17 April 2019
Temperature: 12.0°C (54°F)
Dewpoint: 1.0°C (34°F) [RH = 47%]
Pressure (altimeter): 30.27 inches Hg (1025.0 mb)
Winds: from the E (80 degrees) at 8 MPH (7 knots; 3.6 m/s)
Visibility: 6 or more miles (10+ km)
Ceiling: at least 12,000 feet AGL
Clouds: sky clear below 12,000 feet AGL
Weather: no significant weather observed at this time

METAR text: EHGG 172055Z AUTO 08008KT 050V110 9999 NSC 13/01 Q1025 NOSIG
Conditions at: EHGG (GRONINGEN/EELDE , NL) observed 2055 UTC 17 April 2019
Temperature: 13.0°C (55°F)
Dewpoint: 1.0°C (34°F) [RH = 44%]
Pressure (altimeter): 30.27 inches Hg (1025.0 mb)
Winds: from the E (80 degrees) at 9 MPH (8 knots; 4.1 m/s)
Visibility: 6 or more miles (10+ km)
Ceiling: at least 12,000 feet AGL
Clouds: sky clear below 12,000 feet AGL
Weather: no significant weather observed at this time

Forecast for: EHGG (GRONINGEN/EELDE , NL)
Text: TAF EHGG 190515Z 1906/2012 07010KT CAVOK
Forecast period: 0600 to 0800 UTC 19 April 2019
Forecast type: FROM: standard forecast or significant change
Winds: from the ENE (70 degrees) at 12 MPH (10 knots; 5.1 m/s)
Visibility: 6 or more miles 10+ km)
Ceiling: unknown
Clouds: missing
Weather: NSW  (no significant weather)
Text: BECMG 1908/1911 10012KT
Forecast period: 0800 to 1700 UTC 19 April 2019
Forecast type: BECOMING: Conditions expected to become as follows by 1100 UTC 19 April 2019
Winds: from the E (100 degrees) at 14 MPH (12 knots; 6.2 m/s)
Visibility: 6 or more miles 10+ km)
Ceiling: unknown
Clouds: missing
Weather: NSW  (no significant weather)
Text: BECMG 1917/1919 06007KT
Forecast period: 1700 UTC 19 April 2019 to 0800 UTC 20 April 2019
Forecast type: BECOMING: Conditions expected to become as follows by 1900 UTC 19 April 2019
Winds: from the ENE (60 degrees) at 8 MPH (7 knots; 3.6 m/s)
Visibility: 6 or more miles 10+ km)
Ceiling: unknown
Clouds: missing
Weather: NSW  (no significant weather)
Text: BECMG 2008/2011 09010KT
Forecast period: 0800 to 1200 UTC 20 April 2019
Forecast type: BECOMING: Conditions expected to become as follows by 1100 UTC 20 April 2019
Winds: from the E (90 degrees) at 12 MPH (10 knots; 5.1 m/s)
Visibility: 6 or more miles 10+ km)
Ceiling: unknown
Clouds: missing
Weather: NSW  (no significant weather)